Time;durP1;ratioP1;P1;durP2;ratioP2;P2;SDS_P1;SDS_P2;PMS_P1;PMS_P2;Temp;Humidity;BMP_temperature;BMP_pressure;BME280_temperature;BME280_humidity;BME280_pressure;Samples;Min_cycle;Max_cycle;Signal;HPM_P1;HPM_P2
2021/07/22 00:00:22;;;;;;;9.68;6.25;;;;;;;16.45;67.96;100361.23;257204;1104;115342;-66
2021/07/22 00:05:47;;;;;;;8.78;5.30;;;;;;;16.39;68.54;100365.77;256407;1104;114667;-66
2021/07/22 00:10:52;;;;;;;6.18;5.28;;;;;;;16.35;68.50;100361.15;254448;1104;115613;-67
2021/07/22 00:15:58;;;;;;;6.75;5.55;;;;;;;16.28;68.58;100361.36;256022;1104;115424;-68
2021/07/22 00:21:06;;;;;;;6.68;5.30;;;;;;;16.25;68.87;100359.18;255963;1104;115428;-67
2021/07/22 00:26:12;;;;;;;9.10;6.23;;;;;;;16.21;68.71;100355.38;255428;1100;115659;-67
2021/07/22 00:31:17;;;;;;;8.45;5.83;;;;;;;16.19;69.04;100349.47;254045;1104;115630;-68
2021/07/22 00:36:22;;;;;;;6.30;5.70;;;;;;;16.16;69.21;100356.17;253891;1104;114699;-68
2021/07/22 00:41:26;;;;;;;7.30;5.60;;;;;;;16.15;69.17;100348.36;253840;1099;114707;-67
2021/07/22 00:46:31;;;;;;;5.73;4.88;;;;;;;16.12;69.30;100346.17;254168;1104;115783;-67
2021/07/22 00:51:38;;;;;;;7.88;6.15;;;;;;;16.11;69.63;100347.24;255764;1104;137237;-67
2021/07/22 00:56:44;;;;;;;7.45;5.35;;;;;;;16.09;69.56;100349.38;255960;1104;115625;-68
2021/07/22 01:01:49;;;;;;;13.45;5.20;;;;;;;15.98;69.62;100345.77;256008;1104;115407;-67
2021/07/22 01:06:54;;;;;;;21.15;5.28;;;;;;;15.93;69.61;100347.59;255680;1104;116353;-67
2021/07/22 01:11:59;;;;;;;5.80;5.20;;;;;;;15.94;70.01;100347.34;254783;1098;115253;-67
2021/07/22 01:17:11;;;;;;;6.28;5.48;;;;;;;15.93;70.36;100336.84;257301;1104;115385;-66
2021/07/22 01:22:17;;;;;;;8.68;4.90;;;;;;;15.99;70.33;100344.70;257204;1104;115544;-66
2021/07/22 01:27:22;;;;;;;5.68;4.95;;;;;;;16.05;70.08;100341.00;257344;1104;116986;-66
2021/07/22 01:32:26;;;;;;;6.88;5.50;;;;;;;15.99;70.46;100346.58;257206;1104;115132;-66
2021/07/22 01:37:31;;;;;;;5.40;4.65;;;;;;;15.93;70.21;100339.53;257225;1104;115575;-69
2021/07/22 01:42:37;;;;;;;7.60;4.97;;;;;;;15.97;70.74;100343.34;257284;1104;117305;-67
2021/07/22 01:47:43;;;;;;;9.18;5.93;;;;;;;16.05;70.93;100343.69;256121;1104;115598;-66
2021/07/22 01:52:47;;;;;;;8.43;6.13;;;;;;;16.06;70.45;100341.81;256457;1104;115085;-67
2021/07/22 01:57:55;;;;;;;7.65;6.23;;;;;;;16.10;70.52;100343.74;254325;1104;115968;-67
2021/07/22 02:03:01;;;;;;;7.58;5.18;;;;;;;16.15;70.86;100340.28;256040;1104;117002;-69
2021/07/22 02:08:06;;;;;;;9.08;5.15;;;;;;;16.20;71.10;100347.59;254661;1104;115403;-68
2021/07/22 02:13:11;;;;;;;10.35;5.78;;;;;;;16.21;71.16;100349.99;256182;1104;117323;-71
2021/07/22 02:18:15;;;;;;;12.55;5.85;;;;;;;16.24;71.50;100357.55;255078;1104;118848;-70
2021/07/22 02:23:21;;;;;;;10.45;5.65;;;;;;;16.24;71.53;100349.48;255052;1104;115498;-69
2021/07/22 02:28:26;;;;;;;8.33;5.88;;;;;;;16.11;71.17;100347.24;254929;1104;115715;-68
2021/07/22 02:33:31;;;;;;;7.40;5.83;;;;;;;16.06;71.33;100361.45;255383;1104;115142;-68
2021/07/22 02:38:36;;;;;;;6.57;5.23;;;;;;;16.11;71.54;100355.31;254878;1104;115291;-67
2021/07/22 02:43:42;;;;;;;5.08;4.20;;;;;;;16.11;71.88;100361.50;254747;1104;115939;-67
2021/07/22 02:48:47;;;;;;;8.55;5.70;;;;;;;16.17;72.20;100362.36;255211;1104;115521;-68
2021/07/22 02:53:51;;;;;;;7.65;5.68;;;;;;;16.20;71.96;100364.55;254381;1104;116154;-67
2021/07/22 02:58:57;;;;;;;8.80;6.85;;;;;;;16.22;72.33;100358.88;255200;1104;116036;-67
2021/07/22 03:04:02;;;;;;;11.83;6.53;;;;;;;16.22;72.36;100365.06;255336;1104;116250;-67
2021/07/22 03:09:06;;;;;;;8.10;5.95;;;;;;;16.27;72.16;100367.00;255271;1104;115762;-68
2021/07/22 03:14:12;;;;;;;6.93;5.63;;;;;;;16.30;72.05;100366.48;256030;1104;116218;-67
2021/07/22 03:19:17;;;;;;;8.68;5.93;;;;;;;16.32;72.09;100364.35;255134;1104;116131;-67
2021/07/22 03:24:25;;;;;;;11.33;6.60;;;;;;;16.30;72.12;100375.36;256442;1104;115191;-67
2021/07/22 03:29:29;;;;;;;;;;;;;;;16.27;72.07;100373.19;255824;1104;115711;-67
2021/07/22 03:34:34;;;;;;;9.18;6.13;;;;;;;16.33;72.52;100376.73;256699;1104;103929;-68
2021/07/22 03:39:38;;;;;;;5.20;4.70;;;;;;;16.45;72.78;100386.27;257155;1104;117027;-67
2021/07/22 03:44:43;;;;;;;9.13;5.73;;;;;;;16.54;72.10;100386.58;256370;1104;116291;-68
2021/07/22 03:49:48;;;;;;;10.05;6.40;;;;;;;16.62;72.18;100394.18;257138;1104;116021;-68
2021/07/22 03:54:53;;;;;;;8.53;5.98;;;;;;;16.72;72.13;100391.59;257105;1104;117127;-68
2021/07/22 03:59:57;;;;;;;7.18;6.25;;;;;;;16.74;72.12;100388.66;255632;1104;115595;-68
2021/07/22 04:05:02;;;;;;;11.48;6.53;;;;;;;16.80;72.20;100396.51;254925;1104;115664;-67
2021/07/22 04:10:08;;;;;;;7.05;6.23;;;;;;;16.91;72.64;100393.86;255583;1104;115422;-67
2021/07/22 04:15:14;;;;;;;11.33;6.50;;;;;;;16.98;72.41;100387.17;255382;1104;115714;-66
2021/07/22 04:20:20;;;;;;;10.98;6.45;;;;;;;17.08;72.38;100391.81;255887;1104;116274;-67
2021/07/22 04:25:25;;;;;;;10.97;6.80;;;;;;;17.19;72.08;100393.47;254769;1104;116714;-67
2021/07/22 04:30:29;;;;;;;9.03;7.53;;;;;;;17.25;72.21;100388.92;254545;1104;116857;-68
2021/07/22 04:35:34;;;;;;;9.10;6.03;;;;;;;17.29;71.94;100390.02;255007;1104;116753;-67
2021/07/22 04:40:40;;;;;;;9.53;5.93;;;;;;;17.31;72.18;100390.57;254572;1104;116376;-67
2021/07/22 04:45:45;;;;;;;16.68;7.93;;;;;;;17.36;71.81;100394.10;255939;1104;115037;-68
2021/07/22 04:50:51;;;;;;;8.40;7.50;;;;;;;17.45;71.97;100392.50;256136;1099;116232;-68
2021/07/22 04:55:56;;;;;;;9.73;8.28;;;;;;;17.57;72.01;100386.89;254329;1104;115267;-68
2021/07/22 05:01:04;;;;;;;10.53;8.95;;;;;;;17.66;71.33;100384.53;255058;1098;115955;-68
2021/07/22 05:06:10;;;;;;;13.37;7.10;;;;;;;17.81;71.18;100388.06;254863;1100;117011;-68
2021/07/22 05:11:15;;;;;;;7.28;6.58;;;;;;;17.92;71.03;100383.51;254637;1100;116426;-67
2021/07/22 05:16:22;;;;;;;11.08;7.33;;;;;;;18.03;71.09;100382.45;254314;1098;117504;-68
2021/07/22 05:21:28;;;;;;;10.50;8.28;;;;;;;18.18;70.74;100387.04;256584;1104;116650;-68
2021/07/22 05:26:33;;;;;;;12.70;6.80;;;;;;;18.32;70.25;100385.44;254751;1100;116233;-67
2021/07/22 05:31:42;;;;;;;11.97;7.90;;;;;;;18.43;70.26;100392.44;255890;1100;117904;-67
2021/07/22 05:36:48;;;;;;;7.85;6.75;;;;;;;18.55;70.17;100391.36;255304;1104;116749;-67
2021/07/22 05:41:52;;;;;;;9.38;7.73;;;;;;;18.70;69.50;100388.66;257373;1104;115110;-68
2021/07/22 05:46:58;;;;;;;12.20;7.75;;;;;;;18.91;69.68;100395.66;257268;1104;116887;-68
2021/07/22 05:52:03;;;;;;;9.20;8.05;;;;;;;19.11;69.49;100392.90;257283;1104;117591;-67
2021/07/22 05:57:07;;;;;;;6.43;5.58;;;;;;;19.33;69.14;100392.55;255413;1104;116033;-68
2021/07/22 06:02:14;;;;;;;13.05;6.18;;;;;;;19.57;69.17;100400.06;256612;1104;116229;-68
2021/07/22 06:07:20;;;;;;;7.78;5.03;;;;;;;19.77;68.55;100392.64;255276;1104;116232;-68
2021/07/22 06:12:24;;;;;;;7.98;6.03;;;;;;;19.91;68.41;100397.41;254267;1104;116273;-68
2021/07/22 06:17:28;;;;;;;9.38;6.38;;;;;;;20.05;68.31;100407.34;254342;1098;115614;-68
2021/07/22 06:22:34;;;;;;;8.05;6.65;;;;;;;20.20;68.09;100401.00;254209;1099;115425;-68
2021/07/22 06:27:43;;;;;;;9.28;6.80;;;;;;;20.41;68.20;100402.51;255091;1104;115706;-68
2021/07/22 06:32:49;;;;;;;6.75;5.63;;;;;;;20.63;67.58;100402.03;255019;1104;115397;-69
2021/07/22 06:37:53;;;;;;;11.65;5.88;;;;;;;20.90;66.69;100406.92;254277;1100;116037;-69
2021/07/22 06:42:58;;;;;;;8.78;4.93;;;;;;;21.09;66.29;100407.81;254241;1104;116569;-68
2021/07/22 06:48:03;;;;;;;6.43;4.60;;;;;;;21.15;65.39;100395.80;254713;1104;117625;-68
2021/07/22 06:53:08;;;;;;;12.83;6.15;;;;;;;21.28;65.52;100393.53;254279;1099;116374;-68
2021/07/22 06:58:13;;;;;;;11.63;5.10;;;;;;;21.52;65.41;100399.72;254886;1104;116246;-68
2021/07/22 07:03:19;;;;;;;6.23;4.85;;;;;;;21.78;64.93;100398.28;254237;1104;117875;-68
2021/07/22 07:08:23;;;;;;;8.05;5.35;;;;;;;22.01;64.64;100404.76;255086;1104;116949;-69
2021/07/22 07:13:28;;;;;;;4.83;3.43;;;;;;;22.32;63.51;100398.88;255283;1100;116971;-69
2021/07/22 07:18:34;;;;;;;4.47;3.73;;;;;;;22.54;63.04;100398.23;254392;1104;117148;-68
2021/07/22 07:23:38;;;;;;;6.73;4.80;;;;;;;22.75;62.71;100399.48;254989;1104;116469;-68
2021/07/22 07:28:42;;;;;;;5.80;3.70;;;;;;;22.95;61.47;100412.72;254243;1104;116624;-68
2021/07/22 07:33:46;;;;;;;4.58;4.18;;;;;;;22.98;60.36;100403.97;254192;1104;116297;-69
2021/07/22 07:38:50;;;;;;;7.08;4.28;;;;;;;23.21;60.62;100414.98;254226;1104;116280;-68
2021/07/22 07:43:54;;;;;;;3.60;3.30;;;;;;;23.39;60.31;100414.05;254050;1099;116388;-68
2021/07/22 07:48:58;;;;;;;3.53;3.23;;;;;;;23.52;59.41;100405.09;254244;1104;116279;-68
2021/07/22 07:54:03;;;;;;;4.20;3.80;;;;;;;23.73;58.84;100405.48;254397;1104;118838;-68
2021/07/22 07:59:07;;;;;;;4.15;2.98;;;;;;;23.87;58.24;100411.67;255672;1104;116649;-69
2021/07/22 08:04:12;;;;;;;6.78;3.53;;;;;;;24.06;57.13;100408.81;257092;1104;116605;-68
2021/07/22 08:09:17;;;;;;;5.73;4.10;;;;;;;24.39;56.56;100399.32;257017;1104;116426;-69
2021/07/22 08:14:22;;;;;;;8.60;4.63;;;;;;;24.73;56.26;100406.09;255311;1104;116536;-69
2021/07/22 08:19:26;;;;;;;6.00;3.53;;;;;;;25.14;55.14;100412.07;255269;1104;117599;-69
2021/07/22 08:24:30;;;;;;;4.08;3.65;;;;;;;25.44;54.94;100409.59;254292;1104;116882;-68
2021/07/22 08:29:39;;;;;;;8.55;4.25;;;;;;;25.77;54.79;100415.47;254146;1104;116748;-68
2021/07/22 08:34:44;;;;;;;5.43;3.87;;;;;;;26.03;53.93;100402.63;254143;1104;117047;-68
2021/07/22 08:39:53;;;;;;;3.35;3.05;;;;;;;25.93;52.77;100411.16;254235;1100;116252;-69
2021/07/22 08:45:00;;;;;;;8.35;4.03;;;;;;;26.02;52.71;100406.48;254366;1104;115952;-69
2021/07/22 08:50:06;;;;;;;;;;;;;;;26.13;51.78;100401.51;254867;1104;115452;-68
2021/07/22 08:55:10;;;;;;;4.75;4.30;;;;;;;26.11;51.41;100401.02;254861;1104;104957;-69
2021/07/22 09:00:17;;;;;;;8.13;3.98;;;;;;;25.94;50.64;100398.31;254855;1100;115783;-69
2021/07/22 09:05:27;;;;;;;7.48;3.48;;;;;;;25.77;50.58;100388.97;254370;1104;117083;-68
2021/07/22 09:10:34;;;;;;;4.40;3.20;;;;;;;25.46;51.24;100393.70;254447;1104;117895;-69
2021/07/22 09:15:43;;;;;;;4.70;4.20;;;;;;;25.05;50.95;100399.55;254180;1104;116198;-69
2021/07/22 09:20:49;;;;;;;10.18;4.08;;;;;;;24.72;51.46;100396.31;254696;1104;115619;-68
2021/07/22 09:25:55;;;;;;;4.05;3.43;;;;;;;24.45;51.92;100398.08;254734;1104;116038;-68
2021/07/22 09:31:04;;;;;;;4.50;3.93;;;;;;;24.12;52.02;100405.66;254460;1104;115537;-69
2021/07/22 09:36:28;;;;;;;4.13;3.80;;;;;;;23.84;52.52;100396.78;254624;1104;115464;-69
2021/07/22 09:41:32;;;;;;;5.13;4.40;;;;;;;23.80;53.39;100403.14;254587;1104;116022;-69
2021/07/22 09:46:42;;;;;;;4.23;3.93;;;;;;;23.84;53.44;100401.42;256136;1104;115394;-69
2021/07/22 09:51:47;;;;;;;5.03;4.63;;;;;;;23.89;53.29;100403.20;255107;1104;116902;-69
2021/07/22 09:56:54;;;;;;;5.55;4.13;;;;;;;23.93;53.01;100387.86;255199;1104;117112;-70
2021/07/22 10:02:06;;;;;;;6.43;4.75;;;;;;;24.06;53.09;100398.72;256173;1104;118059;-72
2021/07/22 10:07:15;;;;;;;5.30;3.98;;;;;;;24.24;53.41;100390.67;255797;1104;117253;-71
2021/07/22 10:12:22;;;;;;;5.15;4.75;;;;;;;24.51;52.81;100390.55;256079;1104;116363;-69
2021/07/22 10:17:48;;;;;;;4.90;4.50;;;;;;;24.69;52.87;100388.75;254792;1104;116795;-69
2021/07/22 10:22:52;;;;;;;25.15;6.10;;;;;;;24.82;51.09;100379.66;254904;1104;116785;-72
2021/07/22 10:27:57;;;;;;;5.55;5.15;;;;;;;24.91;51.54;100383.23;254371;1104;116878;-68
2021/07/22 10:33:04;;;;;;;5.08;4.68;;;;;;;25.13;51.14;100385.91;254811;1104;116998;-68
2021/07/22 10:38:27;;;;;;;4.77;4.37;;;;;;;25.29;51.05;100388.22;254284;1104;117675;-70
2021/07/22 10:43:47;;;;;;;4.38;3.98;;;;;;;25.41;50.95;100374.74;254343;1104;116399;-69
2021/07/22 10:49:14;;;;;;;6.58;3.78;;;;;;;25.55;49.72;100378.16;254325;1098;116581;-69
2021/07/22 10:54:52;;;;;;;4.73;4.33;;;;;;;25.65;49.52;100377.89;255273;1104;116622;-69
2021/07/22 10:59:57;;;;;;;4.93;3.90;;;;;;;25.71;49.03;100373.05;254617;1104;116645;-71
2021/07/22 11:05:01;;;;;;;5.00;4.00;;;;;;;25.79;49.09;100370.33;255013;1104;115467;-71
2021/07/22 11:10:07;;;;;;;18.85;5.20;;;;;;;25.74;48.60;100369.69;253981;1104;116357;-71
2021/07/22 11:15:17;;;;;;;5.00;3.50;;;;;;;25.57;48.10;100361.46;254403;1104;116180;-70
2021/07/22 11:20:32;;;;;;;4.30;3.85;;;;;;;25.43;48.51;100361.59;254703;1104;116020;-72
2021/07/22 11:25:43;;;;;;;4.18;3.80;;;;;;;25.35;48.99;100368.66;254343;1104;115537;-68
2021/07/22 11:31:08;;;;;;;4.63;4.07;;;;;;;25.26;48.62;100369.75;254129;1099;116219;-70
2021/07/22 11:36:14;;;;;;;6.23;4.05;;;;;;;25.06;49.02;100369.22;254046;1098;115916;-70
2021/07/22 11:41:22;;;;;;;3.75;3.43;;;;;;;24.92;49.06;100364.95;254879;1104;115479;-70
2021/07/22 11:46:43;;;;;;;2.93;2.73;;;;;;;24.77;49.05;100366.95;254006;1104;115614;-70
2021/07/22 11:51:49;;;;;;;4.90;3.18;;;;;;;24.56;50.01;100362.38;254029;1098;116172;-70
2021/07/22 11:56:57;;;;;;;6.83;3.30;;;;;;;24.36;49.79;100356.34;254089;1104;115215;-69
2021/07/22 12:02:04;;;;;;;9.20;4.33;;;;;;;24.15;50.72;100357.94;253934;1104;115835;-69
2021/07/22 12:07:08;;;;;;;3.67;3.33;;;;;;;23.98;50.79;100365.97;256509;1104;116568;-70
2021/07/22 12:12:12;;;;;;;3.98;3.50;;;;;;;23.81;51.12;100356.56;255639;1104;116711;-70
2021/07/22 12:17:17;;;;;;;2.98;2.73;;;;;;;23.66;51.54;100353.36;256498;1104;117549;-69
2021/07/22 12:22:27;;;;;;;5.40;3.37;;;;;;;23.56;52.02;100348.14;256381;1104;116911;-70
2021/07/22 12:27:49;;;;;;;5.98;3.05;;;;;;;23.41;52.87;100349.27;255342;1104;117303;-70
2021/07/22 12:32:57;;;;;;;3.93;3.23;;;;;;;23.33;52.83;100350.78;254878;1104;116424;-70
2021/07/22 12:38:05;;;;;;;10.25;3.50;;;;;;;23.25;52.89;100347.95;255183;1099;116481;-70
2021/07/22 12:43:12;;;;;;;5.35;2.85;;;;;;;23.20;53.22;100338.02;254119;1104;116542;-70
2021/07/22 12:48:18;;;;;;;6.05;3.58;;;;;;;23.11;53.33;100332.48;255007;1104;116437;-69
2021/07/22 12:53:33;;;;;;;4.03;3.65;;;;;;;23.05;53.57;100330.97;254161;1104;117036;-69
2021/07/22 12:58:44;;;;;;;3.70;2.33;;;;;;;23.09;53.80;100321.09;254305;1104;116452;-70
2021/07/22 13:03:53;;;;;;;3.97;3.63;;;;;;;23.19;54.15;100322.80;254183;1104;116236;-68
2021/07/22 13:08:59;;;;;;;4.95;3.78;;;;;;;23.23;54.29;100312.13;253626;1100;116357;-68
2021/07/22 13:14:05;;;;;;;4.65;3.78;;;;;;;23.25;53.90;100316.13;253652;1104;117863;-68
2021/07/22 13:19:10;;;;;;;3.48;2.83;;;;;;;23.26;52.93;100312.30;253888;1104;115644;-69
2021/07/22 13:24:17;;;;;;;4.75;3.35;;;;;;;23.32;53.35;100311.08;253694;1098;116241;-68
2021/07/22 13:29:22;;;;;;;3.53;3.23;;;;;;;23.43;53.47;100307.04;253844;1104;115555;-68
2021/07/22 13:34:26;;;;;;;7.60;3.60;;;;;;;23.58;52.30;100302.38;254749;1104;115239;-67
2021/07/22 13:39:31;;;;;;;4.45;3.35;;;;;;;23.73;52.96;100302.84;254581;1104;115146;-67
2021/07/22 13:44:35;;;;;;;3.65;2.93;;;;;;;23.89;52.52;100305.18;253637;1104;115597;-69
2021/07/22 13:49:40;;;;;;;4.00;3.05;;;;;;;23.97;51.44;100288.11;254775;1100;115253;-69
2021/07/22 13:54:48;;;;;;;2.93;2.73;;;;;;;24.16;50.89;100285.97;253684;1104;115186;-68
2021/07/22 13:59:52;;;;;;;5.53;2.93;;;;;;;24.32;50.98;100284.51;253880;1104;115566;-70
2021/07/22 14:04:58;;;;;;;5.38;3.53;;;;;;;24.40;51.22;100282.95;253567;1104;115857;-70
2021/07/22 14:10:02;;;;;;;5.38;3.48;;;;;;;24.46;51.16;100281.67;255603;1104;116110;-69
2021/07/22 14:15:07;;;;;;;4.68;3.60;;;;;;;24.46;50.60;100277.03;256988;1104;115838;-70
2021/07/22 14:20:18;;;;;;;3.88;3.45;;;;;;;24.47;50.93;100272.38;257184;1104;116666;-69
2021/07/22 14:25:22;;;;;;;3.95;3.65;;;;;;;24.41;50.64;100271.73;254090;1104;117246;-70
2021/07/22 14:30:27;;;;;;;4.85;3.35;;;;;;;24.42;50.57;100273.34;253961;1104;117335;-72
2021/07/22 14:35:31;;;;;;;3.25;3.05;;;;;;;24.36;50.89;100263.70;254777;1104;118712;-70
2021/07/22 14:40:36;;;;;;;7.40;3.90;;;;;;;24.30;50.98;100266.86;255045;1099;115912;-69
2021/07/22 14:45:41;;;;;;;4.25;3.95;;;;;;;24.22;51.42;100257.48;253516;1104;115988;-70
2021/07/22 14:50:45;;;;;;;4.20;3.80;;;;;;;24.10;51.22;100258.09;253533;1104;116253;-70
2021/07/22 14:55:50;;;;;;;4.50;3.40;;;;;;;23.96;51.13;100248.38;253471;1104;117130;-70
2021/07/22 15:00:54;;;;;;;4.13;3.50;;;;;;;23.85;51.50;100242.38;253730;1100;116033;-69
2021/07/22 15:06:03;;;;;;;6.80;5.28;;;;;;;23.79;51.82;100241.72;255425;1104;116045;-69
2021/07/22 15:11:07;;;;;;;3.83;3.35;;;;;;;23.73;51.62;100237.52;255782;1104;116373;-69
2021/07/22 15:16:11;;;;;;;5.85;4.15;;;;;;;23.63;51.95;100229.58;253697;1104;116332;-70
2021/07/22 15:21:19;;;;;;;5.75;4.48;;;;;;;23.53;52.31;100224.41;253602;1104;115745;-69
2021/07/22 15:26:25;;;;;;;4.77;4.33;;;;;;;23.45;53.18;100227.83;253774;1104;116643;-70
2021/07/22 15:31:31;;;;;;;4.23;3.70;;;;;;;23.39;53.11;100221.70;253625;1100;115499;-70
2021/07/22 15:36:37;;;;;;;4.03;3.73;;;;;;;23.34;53.00;100221.00;253726;1104;116178;-71
2021/07/22 15:41:42;;;;;;;4.20;3.70;;;;;;;23.30;53.30;100211.84;254325;1103;115741;-70
2021/07/22 15:46:47;;;;;;;3.95;2.98;;;;;;;23.20;53.07;100206.66;254530;1104;116227;-69
2021/07/22 15:51:52;;;;;;;4.55;4.03;;;;;;;23.18;53.40;100217.84;253628;1104;116063;-69
2021/07/22 15:57:07;;;;;;;12.50;9.88;;;;;;;23.13;52.97;100201.64;255372;1104;115131;-69
2021/07/22 16:02:12;;;;;;;5.95;5.20;;;;;;;23.07;52.87;100200.95;255083;1104;115542;-69
2021/07/22 16:07:18;;;;;;;9.28;4.30;;;;;;;23.03;53.09;100193.70;254773;1104;115884;-70
2021/07/22 16:12:22;;;;;;;4.93;4.25;;;;;;;22.94;53.11;100196.33;253732;1104;116235;-70
2021/07/22 16:17:40;;;;;;;6.50;3.30;;;;;;;22.88;53.34;100191.34;256204;1104;116063;-71
2021/07/22 16:22:46;;;;;;;5.70;3.50;;;;;;;22.77;53.96;100182.55;255416;1099;116121;-71
2021/07/22 16:27:51;;;;;;;;;;;;;;;22.62;54.17;100177.46;254694;1104;116432;-73
2021/07/22 16:33:04;;;;;;;5.53;3.20;;;;;;;22.47;54.09;100182.09;257892;1104;102612;-73
2021/07/22 16:38:10;;;;;;;5.73;5.13;;;;;;;22.44;55.46;100176.45;257073;1104;115457;-68
2021/07/22 16:43:16;;;;;;;4.98;3.98;;;;;;;22.36;55.03;100179.86;257189;1104;115698;-70
2021/07/22 16:48:21;;;;;;;6.28;4.05;;;;;;;22.25;54.97;100165.70;257021;1104;115531;-70
2021/07/22 16:53:25;;;;;;;4.65;3.90;;;;;;;22.12;55.52;100169.20;256995;1104;117127;-71
2021/07/22 16:58:30;;;;;;;6.03;4.67;;;;;;;22.03;55.88;100168.28;255671;1104;115813;-70
2021/07/22 17:03:36;;;;;;;4.63;4.20;;;;;;;21.93;56.60;100173.88;253576;1104;116333;-72
2021/07/22 17:08:41;;;;;;;5.58;4.35;;;;;;;21.85;56.66;100164.52;253451;1104;116063;-69
2021/07/22 17:13:46;;;;;;;4.48;4.08;;;;;;;21.73;56.89;100161.46;253498;1104;118794;-69
2021/07/22 17:18:50;;;;;;;6.43;4.73;;;;;;;21.60;57.39;100163.06;253582;1104;117470;-68
2021/07/22 17:23:55;;;;;;;9.23;5.15;;;;;;;21.48;57.28;100155.38;254794;1104;116204;-68
2021/07/22 17:29:00;;;;;;;5.95;4.58;;;;;;;21.34;58.15;100153.73;255940;1104;115777;-68
2021/07/22 17:34:06;;;;;;;6.20;4.60;;;;;;;21.29;58.38;100151.09;253477;1104;115646;-68
2021/07/22 17:39:11;;;;;;;6.60;5.30;;;;;;;21.25;59.27;100133.80;253440;1099;116976;-68
2021/07/22 17:44:15;;;;;;;9.48;5.63;;;;;;;21.20;59.66;100148.21;253431;1100;117420;-68
2021/07/22 17:49:20;;;;;;;5.95;5.45;;;;;;;21.13;59.88;100137.73;253601;1104;116264;-68
2021/07/22 17:54:25;;;;;;;7.55;4.73;;;;;;;21.05;60.46;100135.72;253529;1104;115876;-70
2021/07/22 17:59:29;;;;;;;9.00;4.50;;;;;;;20.96;60.95;100140.17;254128;1104;115509;-69
2021/07/22 18:04:34;;;;;;;6.67;5.07;;;;;;;20.87;60.85;100139.22;253669;1100;116850;-69
2021/07/22 18:09:40;;;;;;;6.85;4.25;;;;;;;20.79;61.07;100137.96;253867;1104;115899;-70
2021/07/22 18:14:46;;;;;;;5.38;4.88;;;;;;;20.74;61.89;100137.25;253879;1104;116619;-68
2021/07/22 18:19:50;;;;;;;6.35;5.75;;;;;;;20.63;62.44;100131.16;255354;1104;115751;-70
2021/07/22 18:24:55;;;;;;;8.23;5.15;;;;;;;20.57;62.30;100128.80;253904;1104;116416;-70
2021/07/22 18:30:01;;;;;;;6.65;6.00;;;;;;;20.47;62.55;100127.05;253651;1099;115661;-68
2021/07/22 18:35:13;;;;;;;12.73;6.78;;;;;;;20.31;62.57;100139.13;253933;1104;116187;-68
2021/07/22 18:40:21;;;;;;;8.37;5.00;;;;;;;20.23;62.90;100134.34;256582;1103;117168;-69
2021/07/22 18:45:27;;;;;;;9.18;5.83;;;;;;;20.07;63.11;100139.13;257141;1104;115217;-69
2021/07/22 18:50:31;;;;;;;9.65;5.83;;;;;;;20.01;63.42;100143.79;256700;1104;115428;-71
2021/07/22 18:55:38;;;;;;;15.03;5.70;;;;;;;19.93;63.97;100139.00;256975;1104;115512;-70
2021/07/22 19:00:43;;;;;;;10.03;6.50;;;;;;;19.80;63.90;100142.39;254814;1104;115614;-70
2021/07/22 19:05:49;;;;;;;6.05;5.48;;;;;;;19.77;64.41;100143.77;256177;1104;115794;-69
2021/07/22 19:10:54;;;;;;;8.10;6.60;;;;;;;19.73;64.63;100142.72;254195;1104;115441;-70
2021/07/22 19:15:59;;;;;;;8.60;6.08;;;;;;;19.72;65.06;100145.71;254605;1103;115774;-70
2021/07/22 19:21:04;;;;;;;17.20;5.98;;;;;;;19.64;64.95;100152.53;257190;1104;115743;-69
2021/07/22 19:26:10;;;;;;;;;;;;;;;19.46;65.16;100147.81;255120;1104;116194;-70
2021/07/22 19:31:15;;;;;;;6.68;5.45;;;;;;;19.31;65.54;100145.22;254543;1104;103046;-69
2021/07/22 19:36:20;;;;;;;15.25;5.83;;;;;;;19.25;65.44;100143.66;253749;1098;115386;-70
2021/07/22 19:41:26;;;;;;;5.83;5.27;;;;;;;19.04;65.50;100145.69;253707;1104;137498;-69
2021/07/22 19:46:32;;;;;;;6.77;5.17;;;;;;;18.80;65.60;100135.57;254183;1104;115973;-69
2021/07/22 19:51:37;;;;;;;6.10;4.90;;;;;;;18.63;66.45;100137.03;253719;1098;207422;-69
2021/07/22 19:56:42;;;;;;;7.10;6.13;;;;;;;18.66;66.66;100139.16;254932;1104;115514;-68
2021/07/22 20:01:48;;;;;;;9.70;6.88;;;;;;;18.54;66.73;100136.77;253855;1104;115621;-69
2021/07/22 20:06:52;;;;;;;13.33;6.98;;;;;;;18.45;67.09;100141.13;253883;1104;115661;-68
2021/07/22 20:11:57;;;;;;;7.60;6.10;;;;;;;18.40;67.61;100139.25;254472;1104;115556;-67
2021/07/22 20:17:02;;;;;;;8.63;7.23;;;;;;;18.29;67.50;100136.88;253804;1103;115637;-67
2021/07/22 20:22:07;;;;;;;7.28;6.28;;;;;;;18.23;67.49;100143.38;253657;1104;114775;-69
2021/07/22 20:27:13;;;;;;;9.13;6.20;;;;;;;18.17;67.87;100143.39;253808;1104;116072;-67
2021/07/22 20:32:19;;;;;;;6.58;5.40;;;;;;;18.22;68.37;100139.87;254535;1104;115923;-67
2021/07/22 20:37:24;;;;;;;11.83;6.50;;;;;;;18.26;68.25;100140.94;257224;1104;115448;-68
2021/07/22 20:42:29;;;;;;;6.50;5.88;;;;;;;18.21;68.43;100140.95;257048;1104;116037;-68
2021/07/22 20:47:34;;;;;;;19.85;7.48;;;;;;;18.28;68.59;100135.27;257044;1104;115776;-69
2021/07/22 20:52:39;;;;;;;8.25;7.43;;;;;;;18.24;68.61;100137.70;256989;1104;116161;-69
2021/07/22 20:57:44;;;;;;;7.85;6.60;;;;;;;18.23;68.95;100140.67;257060;1104;115350;-68
2021/07/22 21:02:49;;;;;;;6.60;5.80;;;;;;;18.26;68.91;100130.14;257167;1104;116595;-69
2021/07/22 21:07:55;;;;;;;6.90;6.20;;;;;;;18.31;68.84;100130.13;257003;1104;115787;-68
2021/07/22 21:13:00;;;;;;;8.68;6.95;;;;;;;18.18;68.49;100138.80;254068;1104;115600;-68
2021/07/22 21:18:05;;;;;;;14.13;7.20;;;;;;;18.16;69.06;100136.38;254250;1104;115176;-69
2021/07/22 21:23:11;;;;;;;7.88;6.80;;;;;;;18.17;69.45;100134.48;253707;1104;115923;-68
2021/07/22 21:28:16;;;;;;;8.25;6.58;;;;;;;18.19;68.51;100132.32;253727;1104;118290;-68
2021/07/22 21:33:21;;;;;;;9.98;6.90;;;;;;;18.05;69.40;100129.38;253720;1104;115716;-67
2021/07/22 21:38:26;;;;;;;7.50;6.63;;;;;;;17.91;69.38;100128.36;253820;1104;115532;-68
2021/07/22 21:43:31;;;;;;;9.80;7.48;;;;;;;17.88;69.98;100118.11;253994;1104;115450;-68
2021/07/22 21:48:36;;;;;;;10.70;8.07;;;;;;;17.88;69.86;100125.39;254363;1098;116076;-68
2021/07/22 21:53:42;;;;;;;11.25;8.30;;;;;;;17.82;69.80;100125.40;254382;1100;115482;-67
2021/07/22 21:58:48;;;;;;;11.23;8.28;;;;;;;17.72;70.11;100120.05;254645;1104;115276;-68
2021/07/22 22:03:52;;;;;;;9.55;8.58;;;;;;;17.69;70.38;100122.47;254374;1100;115703;-67
2021/07/22 22:08:57;;;;;;;9.30;8.40;;;;;;;17.73;70.58;100120.85;255259;1104;115187;-67
2021/07/22 22:14:03;;;;;;;11.75;8.48;;;;;;;17.68;70.30;100124.36;255977;1104;116023;-67
2021/07/22 22:19:07;;;;;;;9.08;8.13;;;;;;;17.64;70.58;100123.25;254932;1104;115625;-68
2021/07/22 22:24:12;;;;;;;26.20;8.10;;;;;;;17.67;71.23;100122.74;255901;1104;115041;-68
2021/07/22 22:29:16;;;;;;;11.30;8.45;;;;;;;17.72;70.77;100128.13;255399;1104;117586;-68
2021/07/22 22:34:21;;;;;;;11.50;8.15;;;;;;;17.70;70.85;100122.20;253801;1104;117280;-68
2021/07/22 22:39:26;;;;;;;11.50;8.85;;;;;;;17.70;70.83;100127.59;254449;1104;117216;-68
2021/07/22 22:44:31;;;;;;;11.03;8.65;;;;;;;17.70;70.91;100137.57;257062;1104;115602;-67
2021/07/22 22:49:36;;;;;;;9.78;7.70;;;;;;;17.66;71.02;100129.22;257119;1104;115765;-68
2021/07/22 22:54:41;;;;;;;10.07;8.97;;;;;;;17.65;71.13;100124.91;257105;1104;117526;-67
2021/07/22 22:59:45;;;;;;;8.68;7.38;;;;;;;17.71;71.30;100129.22;257058;1104;115438;-67
2021/07/22 23:04:50;;;;;;;9.45;8.15;;;;;;;17.77;70.93;100128.09;256999;1104;116191;-68
2021/07/22 23:09:55;;;;;;;9.68;8.68;;;;;;;17.78;71.25;100134.30;257089;1104;116179;-67